Time;durP1;ratioP1;P1;durP2;ratioP2;P2;SDS_P1;SDS_P2;PMS_P1;PMS_P2;Temp;Humidity;BMP_temperature;BMP_pressure;BME280_temperature;BME280_humidity;BME280_pressure;Samples;Min_cycle;Max_cycle;Signal;HPM_P1;HPM_P2
2022/11/17 00:01:55;;;;;;;1.35;0.60;;;20.40;59.80;;;;;;5094490;28;20438;-80
2022/11/17 00:04:31;;;;;;;2.58;0.50;;;20.70;60.00;;;;;;5094371;28;20430;-80
2022/11/17 00:06:58;;;;;;;1.97;0.70;;;20.50;59.10;;;;;;5094500;28;20436;-80
2022/11/17 00:09:26;;;;;;;2.03;0.90;;;20.60;60.10;;;;;;5093616;28;20395;-81
2022/11/17 00:14:40;;;;;;;2.60;0.43;;;21.00;59.60;;;;;;5094745;28;20697;-81
2022/11/17 00:17:12;;;;;;;2.73;0.60;;;21.30;58.80;;;;;;5094132;28;20449;-80
2022/11/17 00:22:25;;;;;;;9.38;1.25;;;21.80;56.80;;;;;;5094752;28;20363;-81
2022/11/17 00:24:53;;;;;;;7.05;0.90;;;21.90;56.90;;;;;;5093855;28;20372;-81
2022/11/17 00:27:20;;;;;;;2.70;0.70;;;21.90;55.20;;;;;;5094047;28;20393;-80
2022/11/17 00:29:47;;;;;;;2.20;0.60;;;21.90;54.50;;;;;;5093842;28;20411;-80
2022/11/17 00:35:01;;;;;;;3.92;1.02;;;22.00;56.30;;;;;;5094495;28;20489;-80
2022/11/17 00:37:36;;;;;;;2.40;0.50;;;22.10;54.90;;;;;;5093660;28;20860;-81
2022/11/17 00:40:05;;;;;;;3.55;0.82;;;22.30;54.10;;;;;;5093793;28;20381;-82
2022/11/17 00:42:32;;;;;;;3.38;1.00;;;22.30;54.40;;;;;;5093607;28;20365;-80
2022/11/17 00:44:59;;;;;;;2.20;0.60;;;22.60;54.30;;;;;;5093615;28;20379;-80
2022/11/17 00:47:25;;;;;;;4.13;0.55;;;22.80;53.60;;;;;;5093554;28;20937;-80
2022/11/17 00:49:52;;;;;;;1.77;0.60;;;23.10;52.60;;;;;;5093440;28;20388;-82
2022/11/17 00:52:19;;;;;;;0.83;0.60;;;22.70;52.80;;;;;;5093425;28;20423;-79
2022/11/17 00:54:46;;;;;;;3.83;0.73;;;22.60;53.00;;;;;;5093097;28;20443;-80
2022/11/17 00:57:13;;;;;;;2.60;0.80;;;22.30;54.50;;;;;;5093224;28;20721;-80
2022/11/17 00:59:40;;;;;;;1.08;0.50;;;22.10;55.10;;;;;;5091915;28;20790;-82
2022/11/17 01:02:07;;;;;;;1.40;0.50;;;22.20;54.90;;;;;;5093328;28;20372;-81
2022/11/17 01:04:34;;;;;;;3.03;0.63;;;22.50;52.30;;;;;;5093211;28;20415;-80
2022/11/17 01:07:01;;;;;;;1.58;0.50;;;22.20;51.90;;;;;;5093177;28;20380;-80
2022/11/17 01:09:28;;;;;;;6.70;0.90;;;21.90;52.70;;;;;;5093370;28;20365;-79
2022/11/17 01:11:55;;;;;;;5.25;0.80;;;21.60;52.70;;;;;;5093047;28;20463;-80
2022/11/17 01:14:25;;;;;;;1.40;0.47;;;21.90;52.10;;;;;;5093114;28;20368;-81
2022/11/17 01:16:53;;;;;;;1.20;0.50;;;22.00;52.10;;;;;;5093763;28;20372;-81
2022/11/17 01:19:21;;;;;;;3.17;0.60;;;22.10;51.90;;;;;;5092964;28;20702;-80
2022/11/17 01:21:48;;;;;;;2.70;0.70;;;22.20;54.50;;;;;;5092917;28;20422;-81
2022/11/17 01:24:15;;;;;;;3.25;0.70;;;22.60;53.70;;;;;;5092914;28;20421;-82
2022/11/17 01:26:44;;;;;;;2.58;0.60;;;22.70;52.10;;;;;;5092658;28;20764;-81
2022/11/17 01:29:13;;;;;;;2.85;0.50;;;22.90;50.90;;;;;;5092704;28;20368;-81
2022/11/17 01:31:48;;;;;;;3.30;0.60;;;23.50;50.00;;;;;;5091977;28;20416;-80
2022/11/17 01:34:15;;;;;;;5.07;0.70;;;23.30;49.00;;;;;;5092643;28;20369;-80
2022/11/17 01:39:30;;;;;;;1.45;0.52;;;23.50;50.40;;;;;;5092845;28;20368;-81
2022/11/17 01:42:01;;;;;;;2.70;0.65;;;24.20;48.50;;;;;;5092818;28;20852;-82
2022/11/17 01:44:54;;;;;;;1.20;0.40;;;24.40;50.70;;;;;;5092848;28;20368;-81
2022/11/17 01:47:42;;;;;;;1.38;0.50;;;25.10;48.10;;;;;;5092493;28;20381;-79
2022/11/17 01:50:08;;;;;;;1.83;0.52;;;24.70;47.80;;;;;;5092737;28;20426;-81
2022/11/17 01:52:39;;;;;;;1.02;0.40;;;24.40;49.10;;;;;;5092586;28;20453;-80
2022/11/17 01:55:08;;;;;;;0.65;0.40;;;24.30;47.60;;;;;;5092368;28;20966;-79
2022/11/17 01:58:06;;;;;;;5.05;0.82;;;23.70;48.50;;;;;;5093113;28;20763;-79
2022/11/17 02:00:33;;;;;;;3.60;0.52;;;24.30;47.90;;;;;;5092220;28;20720;-80
2022/11/17 02:03:01;;;;;;;1.92;0.50;;;25.30;45.80;;;;;;5092185;28;20462;-82
2022/11/17 02:05:32;;;;;;;1.30;0.50;;;26.00;45.40;;;;;;5091744;28;20728;-82
2022/11/17 02:08:02;;;;;;;3.67;0.60;;;25.80;44.90;;;;;;5092874;28;20353;-81
2022/11/17 02:10:31;;;;;;;0.97;0.50;;;25.00;45.40;;;;;;5092174;28;20836;-80
2022/11/17 02:12:59;;;;;;;4.53;0.60;;;24.40;45.80;;;;;;5092103;28;20372;-80
2022/11/17 02:15:28;;;;;;;2.08;0.50;;;24.00;47.80;;;;;;5092131;28;20883;-79
2022/11/17 02:17:57;;;;;;;1.43;0.60;;;24.60;47.40;;;;;;5092036;28;20408;-82
2022/11/17 02:20:35;;;;;;;1.15;0.40;;;26.00;45.50;;;;;;5092143;28;20863;-80
2022/11/17 02:23:23;;;;;;;3.72;0.60;;;26.40;43.90;;;;;;5092731;28;20443;-80
2022/11/17 02:26:27;;;;;;;3.80;0.70;;;26.00;43.40;;;;;;5092138;28;20868;-80
2022/11/17 02:29:31;;;;;;;1.70;0.50;;;25.80;43.90;;;;;;5092345;28;20380;-81
2022/11/17 02:32:08;;;;;;;3.55;0.52;;;25.60;44.10;;;;;;5091941;28;20535;-81
2022/11/17 02:35:03;;;;;;;3.37;0.50;;;24.90;45.60;;;;;;5091907;28;20395;-80
2022/11/17 02:38:01;;;;;;;1.05;0.60;;;24.40;47.10;;;;;;5092153;28;20375;-82
2022/11/17 02:40:33;;;;;;;1.30;0.40;;;24.30;47.20;;;;;;5092207;28;20376;-81
2022/11/17 02:46:19;;;;;;;4.67;0.60;;;26.30;46.00;;;;;;5092606;28;20417;-80
2022/11/17 02:48:53;;;;;;;1.95;0.50;;;26.10;45.10;;;;;;5092224;28;20386;-80
2022/11/17 02:51:23;;;;;;;5.32;0.95;;;25.50;45.10;;;;;;5090542;28;20408;-80
2022/11/17 02:53:53;;;;;;;6.13;1.20;;;24.80;47.80;;;;;;5090428;28;20376;-80
2022/11/17 02:56:21;;;;;;;5.32;0.90;;;24.20;49.70;;;;;;5092081;28;20396;-80
2022/11/17 02:58:52;;;;;;;3.20;1.20;;;23.70;50.50;;;;;;5091851;28;20384;-80
2022/11/17 03:01:49;;;;;;;4.10;1.00;;;23.20;51.20;;;;;;5091995;28;20763;-79
2022/11/17 03:04:25;;;;;;;4.93;1.13;;;22.80;52.80;;;;;;5091643;28;20384;-81
2022/11/17 03:06:59;;;;;;;6.40;1.20;;;22.50;53.20;;;;;;5092231;28;20368;-80
2022/11/17 03:09:45;;;;;;;3.93;0.80;;;22.30;53.80;;;;;;5091600;28;20895;-80
2022/11/17 03:12:23;;;;;;;5.68;1.10;;;22.30;53.40;;;;;;5091517;28;20388;-80
2022/11/17 03:15:02;;;;;;;2.70;0.90;;;22.40;55.70;;;;;;5091580;28;20418;-80
2022/11/17 03:17:43;;;;;;;3.10;0.90;;;22.60;54.20;;;;;;5094173;28;20443;-80
2022/11/17 03:20:43;;;;;;;4.10;1.00;;;22.60;54.70;;;;;;5095623;28;20840;-80
2022/11/17 03:23:33;;;;;;;2.63;1.00;;;22.70;55.60;;;;;;5053171;28;20371;-80
2022/11/17 03:26:01;;;;;;;3.50;1.10;;;23.70;54.70;;;;;;5051235;28;20432;-81
2022/11/17 03:28:31;;;;;;;3.25;0.90;;;24.90;52.70;;;;;;5013769;28;20705;-81
2022/11/17 03:31:00;;;;;;;3.78;1.08;;;25.00;51.00;;;;;;5012819;28;20998;-82
2022/11/17 03:33:28;;;;;;;7.25;1.30;;;24.70;51.20;;;;;;5012890;28;20406;-81
2022/11/17 03:36:03;;;;;;;4.17;1.10;;;24.10;51.30;;;;;;4996451;28;20792;-80
2022/11/17 03:38:36;;;;;;;2.88;1.00;;;23.40;52.90;;;;;;5012753;28;20505;-81
2022/11/17 03:41:06;;;;;;;3.30;1.13;;;23.00;54.10;;;;;;5012930;28;20375;-81
2022/11/17 03:43:33;;;;;;;2.80;0.90;;;22.90;54.80;;;;;;5012606;28;20816;-80
2022/11/17 03:46:15;;;;;;;3.20;0.95;;;23.30;55.00;;;;;;5012630;28;20375;-81
2022/11/17 03:48:56;;;;;;;3.30;0.85;;;24.10;53.70;;;;;;5012557;28;20751;-82
2022/11/17 03:51:27;;;;;;;2.15;0.90;;;26.00;51.10;;;;;;5012486;28;20460;-81
2022/11/17 03:53:54;;;;;;;3.50;1.00;;;26.70;48.10;;;;;;5013116;28;20376;-82
2022/11/17 03:56:39;;;;;;;4.38;0.95;;;26.30;48.60;;;;;;5012558;28;20391;-81
2022/11/17 03:59:31;;;;;;;3.13;0.90;;;26.10;48.70;;;;;;5032445;28;20367;-82
2022/11/17 04:01:59;;;;;;;3.42;1.08;;;25.60;49.50;;;;;;5012612;28;20879;-81
2022/11/17 04:05:04;;;;;;;3.25;1.02;;;25.90;50.00;;;;;;5012737;28;20805;-82
2022/11/17 04:07:13;;;;;;;5.68;1.00;;;26.50;50.40;;;;;;5012944;28;20380;-81
2022/11/17 04:09:40;;;;;;;2.63;0.77;;;27.10;48.10;;;;;;5016899;28;20514;-82
2022/11/17 04:17:37;;;;;;;3.80;0.95;;;27.60;47.10;;;;;;5014127;28;20456;-80
2022/11/17 04:20:05;;;;;;;2.35;0.90;;;27.20;48.10;;;;;;5014367;28;20439;-81
2022/11/17 04:22:32;;;;;;;2.88;0.98;;;27.30;48.30;;;;;;5015106;28;20934;-80
2022/11/17 04:24:59;;;;;;;2.67;1.00;;;27.40;47.10;;;;;;5019344;28;20379;-82
2022/11/17 04:30:11;;;;;;;2.67;0.90;;;27.60;47.00;;;;;;5074509;28;20390;-81
2022/11/17 04:32:38;;;;;;;3.53;1.00;;;27.70;46.70;;;;;;5072370;28;20411;-80
2022/11/17 04:35:06;;;;;;;2.22;0.90;;;27.90;46.60;;;;;;5072611;28;20384;-81
2022/11/17 04:37:33;;;;;;;4.03;0.90;;;27.90;47.00;;;;;;5072422;28;20380;-81
2022/11/17 04:40:00;;;;;;;3.00;0.98;;;28.00;47.40;;;;;;5113354;28;20441;-80
2022/11/17 04:42:27;;;;;;;1.80;0.80;;;28.20;46.50;;;;;;5116206;28;20361;-81
2022/11/17 04:44:54;;;;;;;2.42;0.93;;;28.10;46.60;;;;;;5114383;28;20397;-81
2022/11/17 04:47:21;;;;;;;2.40;0.88;;;27.90;47.00;;;;;;5094778;28;20395;-83
2022/11/17 04:49:48;;;;;;;2.35;0.90;;;27.90;46.40;;;;;;5099478;28;20396;-81
2022/11/17 04:52:15;;;;;;;3.23;0.83;;;27.90;46.10;;;;;;5095667;28;20373;-80
2022/11/17 04:54:42;;;;;;;2.45;0.90;;;27.10;46.90;;;;;;5093778;28;20371;-81
2022/11/17 04:57:09;;;;;;;3.47;1.00;;;26.00;48.00;;;;;;5095416;28;20433;-81
2022/11/17 04:59:36;;;;;;;3.28;0.90;;;25.30;49.40;;;;;;5098901;28;20369;-81
2022/11/17 05:02:03;;;;;;;3.22;1.00;;;24.80;51.00;;;;;;5103018;28;20373;-84
2022/11/17 05:07:15;;;;;;;3.80;0.87;;;25.80;50.10;;;;;;5094284;28;20713;-84
2022/11/17 05:09:42;;;;;;;3.70;1.03;;;26.10;49.90;;;;;;5093982;28;20908;-85
2022/11/17 05:14:54;;;;;;;2.67;0.93;;;25.50;49.20;;;;;;5094212;28;20368;-80
2022/11/17 05:17:21;;;;;;;2.58;0.90;;;24.70;50.70;;;;;;5093772;28;20388;-83
2022/11/17 05:19:48;;;;;;;5.03;1.10;;;24.10;51.60;;;;;;5093724;28;20444;-81
2022/11/17 05:25:06;;;;;;;3.38;1.10;;;23.60;52.80;;;;;;5094497;28;20409;-78
2022/11/17 05:27:34;;;;;;;4.35;1.13;;;24.00;52.60;;;;;;5092552;28;20726;-80
2022/11/17 05:30:02;;;;;;;4.00;0.95;;;24.20;52.90;;;;;;5092674;28;20392;-79
2022/11/17 05:32:29;;;;;;;4.68;0.90;;;25.20;52.40;;;;;;5092752;28;20388;-83
2022/11/17 05:34:56;;;;;;;2.22;0.80;;;26.30;50.50;;;;;;5091502;28;20775;-81
2022/11/17 05:37:23;;;;;;;2.45;0.80;;;27.10;48.60;;;;;;5092672;28;20928;-80
2022/11/17 05:39:50;;;;;;;3.47;0.90;;;27.70;47.40;;;;;;5092372;28;20841;-82
2022/11/17 05:42:17;;;;;;;2.13;0.80;;;28.00;46.70;;;;;;5092628;28;20373;-80
2022/11/17 05:44:44;;;;;;;3.70;0.90;;;28.20;46.70;;;;;;5092353;28;20750;-82
2022/11/17 05:47:11;;;;;;;2.95;1.02;;;27.90;46.20;;;;;;5092436;28;20379;-82
2022/11/17 05:49:38;;;;;;;2.57;0.90;;;27.70;47.40;;;;;;5092305;28;20376;-79
2022/11/17 05:52:05;;;;;;;1.85;0.80;;;27.80;46.50;;;;;;5092437;28;20392;-78
2022/11/17 05:54:32;;;;;;;4.22;0.75;;;28.20;46.10;;;;;;5092621;28;20369;-80
2022/11/17 05:57:08;;;;;;;3.45;0.90;;;28.20;45.00;;;;;;5092721;28;20801;-80
2022/11/17 05:59:58;;;;;;;1.92;0.80;;;28.00;45.50;;;;;;5092431;28;20365;-81
2022/11/17 06:02:36;;;;;;;4.80;0.80;;;27.30;46.10;;;;;;5092095;28;20725;-79
2022/11/17 06:05:04;;;;;;;3.85;0.85;;;26.90;46.80;;;;;;5092570;28;20522;-80
2022/11/17 06:07:31;;;;;;;3.63;0.90;;;26.60;48.20;;;;;;5092109;28;20713;-80
2022/11/17 06:09:58;;;;;;;2.60;0.70;;;26.70;48.00;;;;;;5092204;28;20364;-83
2022/11/17 06:12:25;;;;;;;2.53;0.80;;;27.30;47.30;;;;;;5092448;28;20388;-83
2022/11/17 06:14:52;;;;;;;3.08;0.90;;;27.70;47.00;;;;;;5092151;28;20379;-83
2022/11/17 06:17:32;;;;;;;2.70;0.85;;;28.40;46.10;;;;;;5092531;28;20879;-84
2022/11/17 06:20:27;;;;;;;2.55;1.00;;;28.80;45.10;;;;;;5092285;28;20361;-80
2022/11/17 06:22:56;;;;;;;2.83;1.00;;;28.20;45.70;;;;;;5090946;28;20800;-80
2022/11/17 06:25:24;;;;;;;3.17;0.85;;;27.40;46.70;;;;;;5092099;28;20425;-81
2022/11/17 06:27:52;;;;;;;2.50;0.90;;;26.10;48.30;;;;;;5092200;28;20384;-84
2022/11/17 06:30:20;;;;;;;4.07;0.98;;;25.80;49.30;;;;;;5092058;28;20479;-82
2022/11/17 06:32:48;;;;;;;2.80;0.98;;;26.10;49.80;;;;;;5092167;28;20797;-81
2022/11/17 06:35:16;;;;;;;2.33;0.95;;;26.30;48.50;;;;;;5092111;28;20429;-80
2022/11/17 06:37:43;;;;;;;3.63;0.90;;;25.90;49.00;;;;;;5091905;28;20384;-79
2022/11/17 06:40:12;;;;;;;4.07;1.05;;;25.20;49.60;;;;;;5091843;28;20987;-82
2022/11/17 06:45:24;;;;;;;3.87;1.30;;;23.20;53.60;;;;;;5092046;28;20886;-77
2022/11/17 06:47:54;;;;;;;4.93;3.08;;;22.60;55.20;;;;;;5091845;28;20925;-79
2022/11/17 06:50:21;;;;;;;27.88;21.98;;;23.10;54.80;;;;;;5091681;28;20400;-77
2022/11/17 06:52:49;;;;;;;43.08;36.78;;;23.40;53.70;;;;;;5095486;28;20372;-77
2022/11/17 06:55:17;;;;;;;36.13;31.17;;;23.60;53.90;;;;;;5095718;28;20376;-80
2022/11/17 06:57:44;;;;;;;8.85;5.55;;;23.80;53.00;;;;;;5095811;28;20451;-76
2022/11/17 07:00:11;;;;;;;4.80;2.05;;;23.10;53.90;;;;;;5095660;28;20848;-77
2022/11/17 07:02:38;;;;;;;3.38;1.10;;;22.70;55.20;;;;;;5094207;28;20380;-76
2022/11/17 07:05:05;;;;;;;4.00;1.10;;;22.00;56.00;;;;;;5095424;28;20377;-76
2022/11/17 07:07:32;;;;;;;2.47;1.05;;;21.40;57.90;;;;;;5095889;28;20372;-74
2022/11/17 07:09:59;;;;;;;3.72;1.00;;;20.90;58.90;;;;;;5095857;28;20459;-79
2022/11/17 07:12:26;;;;;;;4.85;1.02;;;20.50;60.10;;;;;;5095405;28;20402;-81
2022/11/17 07:14:53;;;;;;;2.88;1.10;;;20.60;60.70;;;;;;5095392;28;20364;-78
2022/11/17 07:17:20;;;;;;;3.65;1.00;;;21.10;59.80;;;;;;5095206;28;20387;-75
2022/11/17 07:19:47;;;;;;;4.38;0.98;;;21.70;58.20;;;;;;5095155;28;20429;-79
2022/11/17 07:22:14;;;;;;;3.70;0.90;;;22.30;57.20;;;;;;5095199;28;20434;-80
2022/11/17 07:24:41;;;;;;;3.50;0.98;;;22.70;55.70;;;;;;5095447;28;20404;-82
2022/11/17 07:27:08;;;;;;;3.70;0.90;;;23.10;55.00;;;;;;5095043;28;20461;-79
2022/11/17 07:29:35;;;;;;;2.80;1.02;;;23.30;54.60;;;;;;5093762;28;20420;-80
2022/11/17 07:32:02;;;;;;;2.80;1.00;;;23.30;55.00;;;;;;5095244;28;20404;-76
2022/11/17 07:34:29;;;;;;;2.47;1.00;;;23.20;55.30;;;;;;5094915;28;20372;-77
2022/11/17 07:36:57;;;;;;;3.38;0.90;;;23.20;54.80;;;;;;5094804;28;20416;-79
2022/11/17 07:39:24;;;;;;;5.22;1.17;;;23.10;55.20;;;;;;5094836;28;20400;-78
2022/11/17 07:41:51;;;;;;;5.77;1.00;;;22.80;54.80;;;;;;5095122;28;20880;-80
2022/11/17 07:44:18;;;;;;;4.03;0.95;;;22.20;55.60;;;;;;5094942;28;20372;-77
2022/11/17 07:46:45;;;;;;;4.63;0.88;;;21.20;57.40;;;;;;5095232;28;20372;-75
2022/11/17 07:49:12;;;;;;;5.57;1.20;;;20.40;59.20;;;;;;5094311;28;20373;-76
2022/11/17 07:51:39;;;;;;;4.80;1.08;;;19.80;61.00;;;;;;5094409;28;20526;-77
2022/11/17 07:54:06;;;;;;;5.55;1.10;;;19.30;62.30;;;;;;5094514;28;20373;-78
2022/11/17 07:56:34;;;;;;;2.83;0.90;;;18.80;63.90;;;;;;5094830;28;20875;-79
2022/11/17 07:59:01;;;;;;;4.30;1.00;;;18.40;64.90;;;;;;5094447;28;20372;-76
2022/11/17 08:01:28;;;;;;;3.33;0.90;;;18.10;65.80;;;;;;5094062;28;20376;-75
2022/11/17 08:03:56;;;;;;;3.60;0.90;;;17.90;66.70;;;;;;5092984;28;20369;-75
2022/11/17 08:06:23;;;;;;;3.53;0.70;;;17.90;67.00;;;;;;5094168;28;20376;-75
2022/11/17 08:08:52;;;;;;;4.25;0.90;;;17.70;66.70;;;;;;5094207;28;20365;-75
2022/11/17 08:11:19;;;;;;;2.92;0.82;;;17.60;67.60;;;;;;5094054;28;20396;-75
2022/11/17 08:13:48;;;;;;;2.80;0.90;;;17.60;67.40;;;;;;5094139;28;20368;-75
2022/11/17 08:16:16;;;;;;;3.83;1.05;;;17.50;67.90;;;;;;5093164;28;20740;-76
2022/11/17 08:18:43;;;;;;;5.13;1.10;;;17.40;68.00;;;;;;5093915;28;20745;-80
2022/11/17 08:21:13;;;;;;;3.13;0.87;;;17.30;68.40;;;;;;5094308;28;20432;-82
2022/11/17 08:23:41;;;;;;;3.50;0.90;;;17.10;68.90;;;;;;5094481;28;20372;-79
2022/11/17 08:26:10;;;;;;;7.10;1.00;;;17.00;69.40;;;;;;5093710;28;20361;-78
2022/11/17 08:28:37;;;;;;;5.13;1.00;;;16.80;69.70;;;;;;5093941;28;20441;-77
2022/11/17 08:31:06;;;;;;;4.00;1.00;;;16.70;70.90;;;;;;5093994;28;20875;-75
2022/11/17 08:33:33;;;;;;;2.30;0.88;;;16.60;71.30;;;;;;5093684;28;20736;-82
2022/11/17 08:36:02;;;;;;;4.65;1.00;;;16.50;71.40;;;;;;5093685;28;20398;-77
2022/11/17 08:38:29;;;;;;;3.78;0.88;;;16.40;72.10;;;;;;5093594;28;20379;-77
2022/11/17 08:40:57;;;;;;;2.40;1.00;;;16.40;72.60;;;;;;5093527;28;20791;-76
2022/11/17 08:43:24;;;;;;;4.55;0.90;;;16.40;72.90;;;;;;5093989;28;20408;-79
2022/11/17 08:45:51;;;;;;;3.28;0.98;;;16.30;73.20;;;;;;5094394;28;20365;-77
2022/11/17 08:48:21;;;;;;;4.07;1.00;;;16.30;73.90;;;;;;5094793;28;20434;-79
2022/11/17 08:50:48;;;;;;;3.55;0.95;;;16.20;74.50;;;;;;5094839;28;20396;-77
2022/11/17 08:53:18;;;;;;;5.40;1.10;;;16.10;74.70;;;;;;5094021;28;20372;-75
2022/11/17 08:55:46;;;;;;;4.68;1.20;;;16.00;75.40;;;;;;5093638;28;20980;-78
2022/11/17 08:58:13;;;;;;;4.38;1.20;;;15.90;76.30;;;;;;5093454;28;20383;-75
2022/11/17 09:00:40;;;;;;;3.80;1.48;;;15.90;77.30;;;;;;5093249;28;20379;-79
2022/11/17 09:03:09;;;;;;;5.55;1.50;;;15.90;78.50;;;;;;5093377;28;20368;-81
2022/11/17 09:05:47;;;;;;;5.38;1.20;;;15.80;79.10;;;;;;5093363;28;20365;-79
2022/11/17 09:08:15;;;;;;;5.15;1.38;;;15.80;80.00;;;;;;5093831;28;20376;-75
2022/11/17 09:10:42;;;;;;;6.00;1.80;;;15.80;81.70;;;;;;5094052;28;20384;-75
2022/11/17 09:13:12;;;;;;;6.57;1.92;;;15.80;82.90;;;;;;5095122;28;20387;-78
2022/11/17 09:15:39;;;;;;;5.30;1.60;;;15.80;84.30;;;;;;5094547;28;20513;-78
2022/11/17 09:18:06;;;;;;;4.93;1.40;;;15.80;85.30;;;;;;5094606;28;20418;-79
2022/11/17 09:20:33;;;;;;;4.37;1.50;;;15.80;87.00;;;;;;5094436;28;20789;-75
2022/11/17 09:23:01;;;;;;;5.57;1.40;;;15.70;88.50;;;;;;5094958;28;20852;-79
2022/11/17 09:25:29;;;;;;;6.10;2.10;;;15.70;89.80;;;;;;5094378;28;20376;-81
2022/11/17 09:27:56;;;;;;;4.85;1.60;;;15.60;90.70;;;;;;5092940;28;20400;-77
2022/11/17 09:30:23;;;;;;;6.30;1.95;;;15.70;91.30;;;;;;5092855;28;20406;-83
2022/11/17 09:32:51;;;;;;;7.13;1.70;;;15.70;92.10;;;;;;5091417;28;20706;-74
2022/11/17 09:35:18;;;;;;;6.03;1.30;;;15.70;92.70;;;;;;5092814;28;20468;-76
2022/11/17 09:37:46;;;;;;;10.03;1.80;;;15.80;93.00;;;;;;5093443;28;20368;-81
2022/11/17 09:40:19;;;;;;;5.47;1.40;;;15.80;93.70;;;;;;5092601;28;20426;-76
2022/11/17 09:42:48;;;;;;;10.85;1.45;;;15.70;93.70;;;;;;5093129;28;20373;-81
2022/11/17 09:45:21;;;;;;;6.72;1.40;;;15.70;94.50;;;;;;5092910;28;20372;-78
2022/11/17 09:48:15;;;;;;;7.28;1.40;;;15.60;95.10;;;;;;5093129;28;20429;-75
2022/11/17 09:50:44;;;;;;;5.32;1.30;;;15.50;95.60;;;;;;5092775;28;20472;-78
2022/11/17 09:53:20;;;;;;;7.03;1.45;;;15.40;96.70;;;;;;5092397;28;20372;-75
2022/11/17 09:55:50;;;;;;;6.80;1.30;;;15.30;97.30;;;;;;5092757;28;20369;-75
2022/11/17 09:58:40;;;;;;;5.38;1.40;;;15.30;97.70;;;;;;5091494;28;20408;-75
2022/11/17 10:01:13;;;;;;;4.65;1.48;;;15.40;98.20;;;;;;5092275;28;20368;-76
2022/11/17 10:03:43;;;;;;;7.18;1.50;;;15.50;98.90;;;;;;5093136;28;20372;-76
2022/11/17 10:06:22;;;;;;;6.43;1.37;;;15.60;98.70;;;;;;5092223;28;20379;-75
2022/11/17 10:09:06;;;;;;;7.00;1.20;;;15.70;98.10;;;;;;5092836;28;20449;-76
2022/11/17 10:11:38;;;;;;;4.93;1.30;;;15.60;98.30;;;;;;5092477;28;20421;-75
2022/11/17 10:14:09;;;;;;;7.65;1.42;;;15.60;98.60;;;;;;5092032;28;20398;-75
2022/11/17 10:16:49;;;;;;;5.95;1.40;;;15.60;98.60;;;;;;5092032;28;20422;-77
2022/11/17 10:19:36;;;;;;;5.53;1.30;;;15.50;98.70;;;;;;5092351;28;20353;-74
2022/11/17 10:22:04;;;;;;;10.10;1.60;;;15.50;99.40;;;;;;5092020;28;20364;-78
2022/11/17 10:24:54;;;;;;;4.50;1.30;;;15.50;99.10;;;;;;5092099;28;20724;-75
2022/11/17 10:27:30;;;;;;;21.95;2.25;;;15.50;99.40;;;;;;5094934;28;20725;-75
2022/11/17 10:30:03;;;;;;;21.83;2.55;;;15.40;99.90;;;;;;5096197;28;20387;-76
2022/11/17 10:32:36;;;;;;;18.38;2.28;;;15.20;99.90;;;;;;5096363;28;20382;-76
2022/11/17 10:35:16;;;;;;;15.43;2.20;;;15.10;99.90;;;;;;5096043;28;20364;-75
2022/11/17 10:37:58;;;;;;;23.43;2.60;;;15.00;99.90;;;;;;5095836;28;20774;-75
2022/11/17 10:40:29;;;;;;;19.38;2.63;;;14.90;99.90;;;;;;5096792;28;20700;-75
2022/11/17 10:43:04;;;;;;;21.85;2.55;;;14.90;99.90;;;;;;5096386;28;20359;-75
2022/11/17 10:45:32;;;;;;;20.38;2.60;;;14.90;99.90;;;;;;5096181;28;20409;-74
2022/11/17 10:48:23;;;;;;;15.15;2.63;;;14.90;99.90;;;;;;5094463;28;20868;-76
2022/11/17 10:51:10;;;;;;;12.10;2.10;;;14.80;99.90;;;;;;5089388;28;20812;-79
2022/11/17 10:53:39;;;;;;;18.15;2.60;;;14.80;99.90;;;;;;5095711;28;20376;-76
2022/11/17 10:56:20;;;;;;;17.50;2.63;;;14.80;99.90;;;;;;5095638;28;20464;-80
2022/11/17 10:58:59;;;;;;;22.57;2.50;;;14.70;99.90;;;;;;5095997;28;20726;-76
2022/11/17 11:01:30;;;;;;;17.77;2.47;;;14.60;99.90;;;;;;5095620;28;20369;-76
2022/11/17 11:03:57;;;;;;;13.23;2.70;;;14.60;99.90;;;;;;5095632;28;20372;-76
2022/11/17 11:06:29;;;;;;;15.70;3.47;;;14.50;99.90;;;;;;5095533;28;20368;-76
2022/11/17 11:09:25;;;;;;;13.80;3.10;;;14.40;99.90;;;;;;5095534;28;20435;-81
2022/11/17 11:11:57;;;;;;;17.00;3.10;;;14.40;99.90;;;;;;5053653;28;20469;-76
2022/11/17 11:14:41;;;;;;;14.55;2.88;;;14.30;99.90;;;;;;5053015;28;20376;-77
2022/11/17 11:17:16;;;;;;;13.55;2.67;;;14.30;99.90;;;;;;5053241;28;20479;-78
2022/11/17 11:19:53;;;;;;;11.35;2.67;;;14.30;99.90;;;;;;5052999;28;20384;-79
2022/11/17 11:22:34;;;;;;;14.30;2.60;;;14.30;99.90;;;;;;5052772;28;20808;-77
2022/11/17 11:25:16;;;;;;;10.77;2.30;;;14.30;99.90;;;;;;5052594;28;20887;-76
2022/11/17 11:27:49;;;;;;;12.50;2.40;;;14.30;99.90;;;;;;5052480;28;20760;-79
2022/11/17 11:30:18;;;;;;;7.90;1.80;;;14.30;99.90;;;;;;5052696;28;20427;-76
2022/11/17 11:33:02;;;;;;;10.07;1.80;;;14.30;99.90;;;;;;5052751;28;20399;-76
2022/11/17 11:35:58;;;;;;;10.30;2.30;;;14.30;99.90;;;;;;5052997;28;20732;-76
2022/11/17 11:38:36;;;;;;;19.83;3.22;;;14.30;99.90;;;;;;5012797;28;20871;-76
2022/11/17 11:41:30;;;;;;;17.80;3.90;;;14.40;99.90;;;;;;5013196;28;20383;-80
2022/11/17 11:44:20;;;;;;;20.25;4.70;;;14.40;99.90;;;;;;5013423;28;20411;-74
2022/11/17 11:47:06;;;;;;;21.88;4.15;;;14.50;99.90;;;;;;5013197;28;20371;-75
2022/11/17 11:50:09;;;;;;;14.23;3.75;;;14.50;99.90;;;;;;5052256;28;20380;-75
2022/11/17 11:52:43;;;;;;;15.73;3.30;;;14.60;99.90;;;;;;4993240;28;20397;-77
2022/11/17 11:55:29;;;;;;;13.25;2.90;;;14.70;99.90;;;;;;4993161;28;20724;-80
2022/11/17 11:58:21;;;;;;;17.75;2.80;;;14.70;99.90;;;;;;4977001;28;20393;-80
2022/11/17 12:01:03;;;;;;;8.27;2.20;;;14.80;99.90;;;;;;4993069;28;20384;-76
2022/11/17 12:03:34;;;;;;;9.63;2.10;;;14.70;99.90;;;;;;4992800;28;20376;-78
2022/11/17 12:09:09;;;;;;;8.75;2.20;;;14.60;99.90;;;;;;4992728;28;20377;-76
2022/11/17 12:14:30;;;;;;;9.75;2.00;;;14.60;99.90;;;;;;4993111;28;20412;-80
2022/11/17 12:17:25;;;;;;;8.32;2.03;;;14.60;99.90;;;;;;4992620;28;20377;-75
2022/11/17 12:19:58;;;;;;;12.32;2.33;;;14.60;99.90;;;;;;4992764;28;20884;-81
2022/11/17 12:22:33;;;;;;;8.70;2.20;;;14.60;99.90;;;;;;4992471;28;20389;-75
2022/11/17 12:25:27;;;;;;;9.68;2.10;;;14.60;99.90;;;;;;4992404;28;20818;-75
2022/11/17 12:27:54;;;;;;;11.68;1.85;;;14.60;99.90;;;;;;5002970;28;20908;-76
2022/11/17 12:30:34;;;;;;;10.25;2.20;;;14.60;99.90;;;;;;5093753;28;20752;-75
2022/11/17 12:33:07;;;;;;;8.90;1.90;;;14.60;99.90;;;;;;5093782;28;20860;-76
2022/11/17 12:35:36;;;;;;;11.05;2.00;;;14.60;99.90;;;;;;5094119;28;20361;-75
2022/11/17 12:38:18;;;;;;;7.72;1.80;;;14.60;99.90;;;;;;5093551;28;20380;-75
2022/11/17 12:40:47;;;;;;;6.70;1.60;;;14.60;99.90;;;;;;5093563;28;20836;-76
2022/11/17 12:43:14;;;;;;;7.80;1.90;;;14.60;99.90;;;;;;5093990;28;20388;-74
2022/11/17 12:46:31;;;;;;;9.20;1.95;;;14.70;99.90;;;;;;5093529;28;20421;-75
2022/11/17 12:49:19;;;;;;;8.82;1.85;;;14.70;99.90;;;;;;5050449;28;20376;-76
2022/11/17 12:51:56;;;;;;;7.75;1.80;;;14.60;99.90;;;;;;5051112;28;20427;-74
2022/11/17 12:54:42;;;;;;;10.93;2.08;;;14.60;99.90;;;;;;5050981;28;20441;-79
2022/11/17 12:57:24;;;;;;;6.88;1.98;;;14.70;99.90;;;;;;5050978;28;20864;-74
2022/11/17 13:00:01;;;;;;;9.52;2.13;;;14.70;99.90;;;;;;5051136;28;20375;-75
2022/11/17 13:02:37;;;;;;;12.02;2.40;;;14.70;99.90;;;;;;5050910;28;20383;-75
2022/11/17 13:05:14;;;;;;;10.30;2.55;;;14.70;99.90;;;;;;5051550;28;20376;-75
2022/11/17 13:07:41;;;;;;;11.20;2.17;;;14.70;99.90;;;;;;5050713;28;20368;-75
2022/11/17 13:10:26;;;;;;;10.70;2.00;;;14.70;99.90;;;;;;5050726;28;20394;-76
2022/11/17 13:13:15;;;;;;;8.02;1.83;;;14.70;99.90;;;;;;5051009;28;20387;-75
2022/11/17 13:15:43;;;;;;;10.00;2.10;;;14.70;99.90;;;;;;5051385;28;20384;-75
2022/11/17 13:18:20;;;;;;;14.30;2.80;;;14.70;99.90;;;;;;5050786;28;20386;-75
2022/11/17 13:20:48;;;;;;;13.30;2.50;;;14.60;99.90;;;;;;5050615;28;20372;-75
2022/11/17 13:23:22;;;;;;;9.90;1.80;;;14.60;99.90;;;;;;5050555;28;20855;-75
2022/11/17 13:25:50;;;;;;;7.78;1.65;;;14.60;99.90;;;;;;5086395;28;20383;-75
2022/11/17 13:28:31;;;;;;;8.60;1.80;;;14.60;99.90;;;;;;5092600;28;20396;-76
2022/11/17 13:31:02;;;;;;;6.93;1.60;;;14.60;99.90;;;;;;5092440;28;20396;-75
2022/11/17 13:33:29;;;;;;;5.85;1.63;;;14.50;99.90;;;;;;5092816;28;20368;-76
2022/11/17 13:36:16;;;;;;;8.43;1.50;;;14.60;99.90;;;;;;5092712;28;20372;-76
2022/11/17 13:38:50;;;;;;;7.65;1.58;;;14.60;99.90;;;;;;5092559;28;20859;-75
2022/11/17 13:41:23;;;;;;;8.32;1.80;;;14.60;99.90;;;;;;5092785;28;20365;-80
2022/11/17 13:43:52;;;;;;;8.07;1.90;;;14.60;99.90;;;;;;5092426;28;20384;-75
2022/11/17 13:46:19;;;;;;;8.50;1.77;;;14.60;99.90;;;;;;5092555;28;20368;-75
2022/11/17 13:48:48;;;;;;;8.45;1.60;;;14.50;99.90;;;;;;5092462;28;20455;-75
2022/11/17 13:51:39;;;;;;;7.97;1.63;;;14.50;99.90;;;;;;5092385;28;20485;-75
2022/11/17 13:54:16;;;;;;;8.88;1.70;;;14.40;99.90;;;;;;5092864;28;20421;-75